Mill Rose Farm Restricted Landing Area

Jump to: basic info | weather | runways | comments

Related pages: nearby airports | nearby navaids | notams | map

Basic information (top)

Codes: IL68
Location: lon 42.077202, lat -88.159798, elev 850 ft / 259 m msl
Status: small_airport

Weather (top)

Current conditions for Dupage Airport 11nm (20km) SSW (rec'd 2015/04/25 11:52Z):

KDPA 251152Z 08012KT 9SM -RA OVC055 07/03 A2977 RMK AO2 RAB49 SLP085 P0000 60001 70039 T00670033 10067 20050 56006

Airport forecast for Dupage Airport 11nm (20km) SSW (rec'd 2015/04/25 12:21Z):

TAF KDPA 251120Z 2512/2612 08013G18KT 6SM -SHRA OVC040 
     FM251600 08016G22KT 5SM -RA OVC018 
     FM252200 06015G23KT 6SM -SHRA OVC020 
     FM260100 04012KT P6SM BKN035 
     FM260600 02009KT P6SM SKC

Runways (top)

N/S: 2,500 x 100 ft (762 x 30 m) — grass — lighted

Latest comments (top)

No comments yet for Mill Rose Farm Restricted Landing Area

More... (top)

See also NOTAMs and nearby airports and navaids, or visit the Mill Rose Farm Restricted Landing Area page at the main OurAirports website..